Time;durP1;ratioP1;P1;durP2;ratioP2;P2;SDS_P1;SDS_P2;PMS_P1;PMS_P2;Temp;Humidity;BMP_temperature;BMP_pressure;BME280_temperature;BME280_humidity;BME280_pressure;Samples;Min_cycle;Max_cycle;Signal;HPM_P1;HPM_P2
2022/08/28 00:02:56;;;;;;;2.58;2.38;;;;;;;22.73;56.45;96542.69;10405674;28;20411;-29
2022/08/28 00:07:58;;;;;;;2.15;2.00;;;;;;;22.70;56.33;96548.69;10405204;28;20033;-30
2022/08/28 00:12:59;;;;;;;2.30;2.10;;;;;;;22.70;56.47;96542.75;10405959;28;20527;-30
2022/08/28 00:18:00;;;;;;;2.35;2.20;;;;;;;22.68;56.53;96540.25;10401957;28;20037;-31
2022/08/28 00:23:01;;;;;;;2.53;2.33;;;;;;;22.68;56.42;96541.94;10403238;28;20049;-30
2022/08/28 00:28:06;;;;;;;1.65;1.40;;;;;;;22.79;56.79;96538.31;10405865;28;20079;-29
2022/08/28 00:33:11;;;;;;;1.55;1.45;;;;;;;22.93;56.19;96544.00;10404237;28;20080;-30
2022/08/28 00:38:13;;;;;;;1.40;1.30;;;;;;;22.70;56.21;96528.28;10403234;28;20124;-29
2022/08/28 00:43:45;;;;;;;1.52;1.42;;;;;;;22.72;56.37;96546.13;10405328;28;20029;-29
2022/08/28 00:48:47;;;;;;;2.20;2.00;;;;;;;22.69;56.51;96541.06;10397714;28;20049;-29
2022/08/28 00:53:48;;;;;;;2.05;1.92;;;;;;;22.64;56.53;96528.38;10403665;28;20125;-30
2022/08/28 00:58:51;;;;;;;2.50;2.30;;;;;;;22.63;56.54;96531.81;10404810;28;20536;-29
2022/08/28 01:03:51;;;;;;;1.92;1.83;;;;;;;22.67;56.50;96528.34;10408195;28;20059;-29
2022/08/28 01:08:53;;;;;;;2.50;2.30;;;;;;;22.67;56.79;96533.47;10411806;28;20033;-29
2022/08/28 01:13:58;;;;;;;1.60;1.50;;;;;;;22.84;56.64;96526.31;10412976;28;20065;-29
2022/08/28 01:18:59;;;;;;;1.50;1.40;;;;;;;22.89;56.30;96523.66;10409118;28;20064;-29
2022/08/28 01:24:13;;;;;;;2.90;1.80;;;;;;;22.76;56.37;96528.16;10410443;28;20124;-29
2022/08/28 01:29:14;;;;;;;1.73;1.63;;;;;;;22.69;56.39;96521.50;10412141;28;20582;-29
2022/08/28 01:34:14;;;;;;;2.35;2.15;;;;;;;22.65;56.36;96519.84;10410078;28;20035;-28
2022/08/28 01:39:21;;;;;;;1.50;1.40;;;;;;;22.57;56.38;96506.41;10409451;28;20041;-31
2022/08/28 01:44:25;;;;;;;2.30;1.98;;;;;;;22.61;56.43;96518.25;10411516;28;20377;-29
2022/08/28 01:49:28;;;;;;;1.50;1.40;;;;;;;22.58;56.49;96508.09;10404015;28;20097;-29
2022/08/28 01:54:28;;;;;;;1.65;1.55;;;;;;;22.61;56.83;96510.59;10409164;28;20037;-29
2022/08/28 01:59:28;;;;;;;1.43;1.33;;;;;;;22.83;56.73;96511.00;10410826;28;20059;-29
2022/08/28 02:04:29;;;;;;;1.20;1.10;;;;;;;22.83;56.27;96508.47;10409366;28;20292;-29
2022/08/28 02:09:30;;;;;;;1.33;1.23;;;;;;;22.70;56.25;96518.06;10409731;28;20030;-29
2022/08/28 02:14:30;;;;;;;1.40;1.30;;;;;;;22.66;56.37;96510.50;10409402;28;20745;-29
2022/08/28 02:19:31;;;;;;;1.97;1.87;;;;;;;22.63;56.33;96508.84;10407915;28;20147;-29
2022/08/28 02:24:31;;;;;;;1.37;1.27;;;;;;;22.60;56.47;96506.38;10408853;28;20037;-30
2022/08/28 02:29:31;;;;;;;1.47;1.37;;;;;;;22.59;56.53;96509.78;10410174;28;20040;-28
2022/08/28 02:34:33;;;;;;;1.60;1.50;;;;;;;22.57;56.48;96510.69;10409158;28;20124;-28
2022/08/28 02:39:34;;;;;;;2.63;2.10;;;;;;;22.62;56.81;96519.06;10405761;28;20666;-29
2022/08/28 02:44:35;;;;;;;1.70;1.60;;;;;;;22.82;56.79;96522.91;10409210;28;20036;-29
2022/08/28 02:49:35;;;;;;;1.38;1.27;;;;;;;22.83;56.35;96519.50;10408478;28;20346;-29
2022/08/28 02:54:38;;;;;;;1.60;1.50;;;;;;;22.71;56.35;96508.69;10408501;28;20079;-29
2022/08/28 02:59:39;;;;;;;1.65;1.52;;;;;;;22.66;56.48;96510.50;10408911;28;21104;-29
2022/08/28 03:04:39;;;;;;;2.10;2.00;;;;;;;22.60;56.38;96506.38;10407098;28;20044;-29
2022/08/28 03:09:43;;;;;;;1.60;1.50;;;;;;;22.64;56.32;96512.25;10407508;28;20124;-30
2022/08/28 03:14:43;;;;;;;2.35;2.15;;;;;;;22.62;56.36;96502.06;10408365;28;20430;-29
2022/08/28 03:19:43;;;;;;;1.90;1.80;;;;;;;22.59;56.54;96507.25;10405892;28;20067;-29
2022/08/28 03:24:44;;;;;;;2.20;2.10;;;;;;;22.61;57.19;96508.03;10406329;28;20045;-28
2022/08/28 03:29:44;;;;;;;1.70;1.60;;;;;;;22.81;56.52;96505.94;10407889;28;20065;-30
2022/08/28 03:34:45;;;;;;;1.70;1.60;;;;;;;22.79;56.20;96505.13;10406722;28;20091;-30
2022/08/28 03:39:45;;;;;;;1.60;1.50;;;;;;;22.68;56.28;96514.72;10406319;28;20053;-29
2022/08/28 03:44:47;;;;;;;1.87;1.77;;;;;;;22.63;56.44;96513.09;10406756;28;20045;-29
2022/08/28 03:49:54;;;;;;;1.60;1.50;;;;;;;22.60;56.55;96520.81;10405622;28;20499;-30
2022/08/28 03:54:54;;;;;;;1.20;1.10;;;;;;;22.57;56.49;96516.63;10405954;28;20033;-29
2022/08/28 03:59:55;;;;;;;3.27;1.43;;;;;;;22.57;56.42;96526.00;10406219;28;20139;-30
2022/08/28 04:04:55;;;;;;;1.60;1.50;;;;;;;22.59;56.43;96527.66;10406272;28;20483;-30
2022/08/28 04:09:57;;;;;;;2.58;2.38;;;;;;;22.62;57.16;96530.13;10405058;28;20046;-29
2022/08/28 04:14:57;;;;;;;2.10;1.90;;;;;;;22.81;56.55;96526.34;10404864;28;20033;-30
2022/08/28 04:19:57;;;;;;;1.63;1.52;;;;;;;22.76;56.56;96528.16;10403821;28;20026;-29
2022/08/28 04:24:58;;;;;;;1.63;1.47;;;;;;;22.69;56.33;96521.50;10403436;28;20041;-30
2022/08/28 04:29:58;;;;;;;1.88;1.77;;;;;;;22.65;56.39;96519.03;10404923;28;20045;-29
2022/08/28 04:34:59;;;;;;;1.92;1.83;;;;;;;22.65;56.52;96529.25;10402277;28;20550;-30
2022/08/28 04:39:59;;;;;;;2.50;2.30;;;;;;;22.60;56.39;96529.34;10404429;28;20519;-29
2022/08/28 04:44:59;;;;;;;1.73;1.63;;;;;;;22.58;56.55;96532.78;10405679;28;20034;-30
2022/08/28 04:50:01;;;;;;;1.90;1.70;;;;;;;22.56;56.53;96535.34;10396762;28;20032;-29
2022/08/28 04:55:02;;;;;;;2.30;2.10;;;;;;;22.64;56.89;96543.69;10403989;28;20029;-29
2022/08/28 05:00:05;;;;;;;2.03;1.90;;;;;;;22.82;56.63;96538.22;10403378;28;20519;-29
2022/08/28 05:05:06;;;;;;;1.50;1.40;;;;;;;22.78;56.34;96540.88;10401445;28;20514;-29
2022/08/28 05:10:07;;;;;;;2.00;1.80;;;;;;;22.62;56.26;96532.69;10403972;28;20365;-29
2022/08/28 05:15:08;;;;;;;2.30;2.10;;;;;;;22.62;56.38;96540.34;10404606;28;20056;-29
2022/08/28 05:20:09;;;;;;;1.60;1.50;;;;;;;22.60;56.47;96547.19;10399174;28;20347;-29
2022/08/28 05:25:09;;;;;;;1.48;1.38;;;;;;;22.58;56.49;96554.03;10402089;28;20044;-29
2022/08/28 05:30:10;;;;;;;2.05;1.95;;;;;;;22.57;56.55;96556.63;10403206;28;20042;-30
2022/08/28 05:35:11;;;;;;;1.42;1.33;;;;;;;22.56;56.49;96571.06;10403627;28;20121;-29
2022/08/28 05:40:11;;;;;;;1.70;1.60;;;;;;;22.65;56.76;96576.00;10401999;28;20418;-29
2022/08/28 05:45:12;;;;;;;2.10;2.00;;;;;;;22.82;56.75;96573.97;10405229;28;20124;-29
2022/08/28 05:50:13;;;;;;;1.45;1.35;;;;;;;22.76;56.43;96576.66;10410028;28;20484;-29
2022/08/28 05:55:14;;;;;;;1.90;1.80;;;;;;;22.67;56.23;96581.94;10410291;28;20030;-29
2022/08/28 06:00:14;;;;;;;2.17;1.92;;;;;;;22.57;56.27;96577.03;10407153;28;20049;-28
2022/08/28 06:05:15;;;;;;;2.47;2.28;;;;;;;22.63;56.31;96590.50;10408173;28;20470;-29
2022/08/28 06:10:15;;;;;;;3.00;2.80;;;;;;;22.63;56.45;96587.09;10409869;28;20407;-29
2022/08/28 06:15:16;;;;;;;2.70;2.50;;;;;;;22.63;56.60;96590.50;10410472;28;20065;-29
2022/08/28 06:20:16;;;;;;;2.50;2.30;;;;;;;22.61;56.37;96589.72;10407278;28;20103;-29
2022/08/28 06:25:17;;;;;;;1.95;1.77;;;;;;;22.69;56.88;96597.22;10408344;28;20041;-29
2022/08/28 06:30:17;;;;;;;2.50;2.23;;;;;;;22.84;56.60;96594.38;10410118;28;20116;-29
2022/08/28 06:35:17;;;;;;;1.70;1.60;;;;;;;22.76;56.29;96588.56;10408667;28;20041;-30
2022/08/28 06:40:18;;;;;;;2.23;2.00;;;;;;;22.68;56.32;96591.28;10407505;28;20288;-30
2022/08/28 06:45:18;;;;;;;2.50;2.30;;;;;;;22.64;56.37;96606.69;10408741;28;20950;-30
2022/08/28 06:50:18;;;;;;;2.03;1.77;;;;;;;22.61;56.37;96609.25;10409031;28;20117;-28
2022/08/28 06:55:19;;;;;;;2.70;2.50;;;;;;;22.62;56.62;96605.84;10408653;28;20108;-29
2022/08/28 07:00:19;;;;;;;2.77;2.57;;;;;;;22.61;56.67;96610.13;10407753;28;20049;-30
2022/08/28 07:05:20;;;;;;;2.97;2.67;;;;;;;22.63;56.56;96610.06;10406798;28;20413;-29
2022/08/28 07:10:20;;;;;;;2.10;1.90;;;;;;;22.71;56.81;96606.53;10407420;28;20295;-29
2022/08/28 07:15:20;;;;;;;2.13;1.83;;;;;;;22.85;56.50;96609.69;10408338;28;20522;-30
2022/08/28 07:20:21;;;;;;;1.47;1.37;;;;;;;22.74;56.19;96616.66;10407101;28;20029;-29
2022/08/28 07:25:21;;;;;;;1.70;1.60;;;;;;;22.65;56.30;96604.06;10405575;28;20086;-29
2022/08/28 07:30:21;;;;;;;2.13;1.97;;;;;;;22.60;56.36;96612.69;10405461;28;20048;-29
2022/08/28 07:35:22;;;;;;;2.60;2.40;;;;;;;22.58;56.42;96609.34;10406620;28;20045;-29
2022/08/28 07:40:22;;;;;;;1.90;1.80;;;;;;;22.54;56.51;96603.44;10404805;28;20044;-29
2022/08/28 07:45:23;;;;;;;1.90;1.80;;;;;;;22.56;56.43;96613.63;10407083;28;20038;-28
2022/08/28 07:50:24;;;;;;;2.25;2.08;;;;;;;22.55;56.54;96617.88;10405345;28;20038;-29
2022/08/28 07:55:26;;;;;;;2.07;1.90;;;;;;;22.61;56.79;96614.38;10405453;28;20030;-29
2022/08/28 08:00:27;;;;;;;1.70;1.60;;;;;;;22.82;56.74;96617.38;10406354;28;20033;-30
2022/08/28 08:05:27;;;;;;;1.70;1.60;;;;;;;22.71;56.27;96626.94;10404558;28;20033;-30
2022/08/28 08:10:27;;;;;;;2.23;2.07;;;;;;;22.65;56.56;96629.59;10405640;28;20410;-30
2022/08/28 08:15:28;;;;;;;3.27;2.40;;;;;;;22.59;56.37;96629.72;10406117;28;20649;-29
2022/08/28 08:20:28;;;;;;;2.00;1.90;;;;;;;22.57;56.42;96639.09;10404256;28;20068;-29
2022/08/28 08:25:28;;;;;;;2.50;2.30;;;;;;;22.57;56.43;96636.56;10404149;28;20041;-28
2022/08/28 08:30:29;;;;;;;2.33;2.13;;;;;;;22.56;56.31;96637.41;10406099;28;20056;-29
2022/08/28 08:35:29;;;;;;;1.93;1.80;;;;;;;22.55;56.50;96645.94;10404600;28;20488;-29
2022/08/28 08:40:29;;;;;;;1.93;1.83;;;;;;;22.68;56.64;96647.44;10403370;28;20562;-30
2022/08/28 08:45:30;;;;;;;1.80;1.70;;;;;;;22.82;56.33;96645.44;10406060;28;20279;-30
2022/08/28 08:50:34;;;;;;;1.90;1.80;;;;;;;22.69;56.39;96638.06;10404047;28;20029;-29
2022/08/28 08:55:41;;;;;;;2.22;2.08;;;;;;;22.63;56.25;96639.00;10401637;28;20044;-29
2022/08/28 09:00:49;;;;;;;2.33;2.13;;;;;;;22.59;56.24;96642.50;10404808;28;20037;-29
2022/08/28 09:06:02;;;;;;;2.30;2.10;;;;;;;22.56;56.49;96641.69;10403837;28;20786;-30
2022/08/28 09:11:12;;;;;;;1.90;1.80;;;;;;;22.56;56.49;96652.72;10404249;28;20026;-30
2022/08/28 09:16:22;;;;;;;2.25;2.05;;;;;;;22.55;56.53;96642.56;10405228;28;20511;-29
2022/08/28 09:21:30;;;;;;;2.58;2.38;;;;;;;22.51;56.65;96644.34;10405646;28;20069;-29
2022/08/28 09:26:30;;;;;;;1.70;1.60;;;;;;;22.71;56.93;96647.38;10410002;28;20033;-29
2022/08/28 09:31:37;;;;;;;1.57;1.47;;;;;;;22.83;56.18;96664.19;10412982;28;20036;-30
2022/08/28 09:36:37;;;;;;;1.80;1.70;;;;;;;22.70;56.26;96676.31;10409403;28;20175;-28
2022/08/28 09:47:36;;;;;;;2.22;2.03;;;;;;;22.61;56.42;96686.69;10406480;28;20307;-29
2022/08/28 09:52:36;;;;;;;2.65;2.45;;;;;;;22.61;56.43;96685.81;10411341;28;20036;-30
2022/08/28 09:57:45;;;;;;;2.90;2.70;;;;;;;22.52;56.47;96676.63;10411094;28;20056;-29
2022/08/28 10:03:13;;;;;;;2.63;2.42;;;;;;;22.54;56.43;96684.25;10410974;28;20041;-29
2022/08/28 10:08:31;;;;;;;2.17;2.08;;;;;;;22.57;56.96;96690.13;10409359;28;20056;-29
2022/08/28 10:13:46;;;;;;;2.55;2.35;;;;;;;22.77;56.69;96693.22;10410715;28;20036;-29
2022/08/28 10:19:19;;;;;;;2.00;1.80;;;;;;;22.75;56.28;96697.47;10404070;28;20038;-29
2022/08/28 10:24:41;;;;;;;1.55;1.45;;;;;;;22.63;56.36;96700.25;10409392;28;20041;-29
2022/08/28 10:29:52;;;;;;;1.80;1.70;;;;;;;22.57;56.31;96691.88;10408738;28;20036;-29
2022/08/28 10:35:15;;;;;;;2.35;2.15;;;;;;;22.57;56.57;96692.69;10406869;28;20061;-30
2022/08/28 10:40:23;;;;;;;2.53;2.33;;;;;;;22.58;56.47;96691.00;10408112;28;20496;-29
2022/08/28 10:45:24;;;;;;;2.03;1.92;;;;;;;22.53;56.40;96678.31;10409529;28;20041;-29
2022/08/28 10:50:56;;;;;;;1.80;1.70;;;;;;;22.53;56.44;96688.53;10404778;28;20025;-30
2022/08/28 10:56:11;;;;;;;1.80;1.70;;;;;;;22.69;56.76;96684.00;10398841;28;20048;-29
2022/08/28 11:01:24;;;;;;;1.60;1.50;;;;;;;22.82;56.28;96681.19;10403109;28;20506;-29
2022/08/28 11:06:32;;;;;;;1.90;1.80;;;;;;;22.69;56.28;96684.00;10408223;28;20041;-29
2022/08/28 11:11:43;;;;;;;1.65;1.55;;;;;;;22.60;56.61;96685.00;10408171;28;20432;-29
2022/08/28 11:16:45;;;;;;;2.60;2.40;;;;;;;22.62;56.50;96675.59;10406858;28;20041;-29
2022/08/28 11:22:06;;;;;;;2.55;2.35;;;;;;;22.57;56.40;96679.94;10406672;28;20034;-29
2022/08/28 11:27:37;;;;;;;2.00;1.90;;;;;;;22.53;56.44;96668.09;10406775;28;20033;-29
2022/08/28 11:32:49;;;;;;;2.47;2.28;;;;;;;22.57;56.31;96664.63;10402366;28;20045;-30
2022/08/28 11:37:53;;;;;;;2.72;2.53;;;;;;;22.59;56.57;96673.13;10405127;28;20030;-30
2022/08/28 11:43:33;;;;;;;1.80;1.70;;;;;;;22.78;56.55;96664.25;10406147;28;20247;-29
2022/08/28 11:48:38;;;;;;;1.75;1.65;;;;;;;22.78;56.21;96660.84;10375665;28;20049;-29
2022/08/28 11:53:53;;;;;;;1.95;1.85;;;;;;;22.57;56.34;96651.03;10405449;28;20045;-29
2022/08/28 11:59:18;;;;;;;1.70;1.60;;;;;;;22.56;56.37;96657.84;10406652;28;20047;-30
2022/08/28 12:04:21;;;;;;;1.50;1.40;;;;;;;22.52;56.38;96650.25;10406069;28;20519;-29
2022/08/28 12:09:41;;;;;;;0.93;0.93;;;;;;;22.51;56.49;96649.44;10405167;28;20037;-29
2022/08/28 12:14:44;;;;;;;1.58;1.48;;;;;;;22.50;56.51;96645.16;10401365;28;20033;-29
2022/08/28 12:20:07;;;;;;;2.03;1.92;;;;;;;22.54;56.54;96649.38;10404693;28;20175;-29
2022/08/28 12:25:21;;;;;;;2.00;1.90;;;;;;;22.65;56.86;96647.47;10401999;28;20563;-30
2022/08/28 12:30:30;;;;;;;2.05;1.95;;;;;;;22.83;56.47;96649.69;10404428;28;20025;-29
2022/08/28 12:35:31;;;;;;;1.70;1.60;;;;;;;22.72;56.39;96654.16;10405726;28;20087;-28
2022/08/28 12:40:52;;;;;;;1.70;1.60;;;;;;;22.58;56.29;96643.34;10404579;28;20115;-29
2022/08/28 12:45:56;;;;;;;2.20;2.00;;;;;;;22.56;56.63;96650.19;10401691;28;20072;-29
2022/08/28 12:51:32;;;;;;;2.03;1.92;;;;;;;22.64;56.43;96642.41;10405538;28;20523;-29
2022/08/28 12:56:35;;;;;;;2.87;2.67;;;;;;;22.62;56.83;96642.44;10405795;28;20048;-29
2022/08/28 13:01:36;;;;;;;2.65;2.45;;;;;;;22.65;56.87;96644.09;10407194;28;20076;-30
2022/08/28 13:06:37;;;;;;;2.90;2.70;;;;;;;22.62;56.45;96637.31;10411721;28;20584;-29
2022/08/28 13:11:43;;;;;;;1.98;1.88;;;;;;;22.76;56.79;96630.28;10412965;28;20037;-29
2022/08/28 13:16:45;;;;;;;1.20;1.10;;;;;;;22.86;56.07;96616.47;10411624;28;20112;-29
2022/08/28 13:21:46;;;;;;;1.75;1.63;;;;;;;22.71;56.31;96619.28;10412069;28;20037;-29
2022/08/28 13:26:49;;;;;;;2.38;2.17;;;;;;;22.64;56.43;96620.25;10410444;28;20039;-29
2022/08/28 13:32:03;;;;;;;2.40;2.20;;;;;;;22.62;56.44;96611.81;10409594;28;20088;-30
2022/08/28 13:37:08;;;;;;;1.73;1.63;;;;;;;22.59;56.49;96606.78;10412445;28;20029;-29
2022/08/28 13:42:12;;;;;;;1.93;1.83;;;;;;;22.54;56.38;96594.94;10410169;28;20034;-29
2022/08/28 13:47:14;;;;;;;1.58;1.48;;;;;;;22.52;56.48;96605.19;10408428;28;20044;-30
2022/08/28 13:52:14;;;;;;;1.52;1.42;;;;;;;22.51;56.55;96593.31;10412108;28;20488;-29
2022/08/28 13:57:15;;;;;;;1.80;1.70;;;;;;;22.71;56.70;96591.22;10409817;28;20120;-30
2022/08/28 14:07:35;;;;;;;1.48;1.38;;;;;;;22.68;57.05;96595.53;10409394;28;20037;-30
2022/08/28 14:12:36;;;;;;;2.47;2.28;;;;;;;22.80;57.34;96590.19;10411015;28;20050;-29
2022/08/28 14:17:36;;;;;;;2.67;2.47;;;;;;;22.85;57.59;96586.69;10402074;28;20037;-30
2022/08/28 14:22:37;;;;;;;2.40;2.20;;;;;;;22.87;57.76;96589.19;10409421;28;20456;-29
2022/08/28 14:27:37;;;;;;;2.53;2.33;;;;;;;22.88;57.69;96584.06;10410102;28;20515;-29
2022/08/28 14:32:37;;;;;;;2.53;2.33;;;;;;;22.91;57.77;96578.91;10408495;28;20040;-29
2022/08/28 14:37:38;;;;;;;2.30;2.10;;;;;;;22.87;57.72;96579.84;10407962;28;20583;-29
2022/08/28 14:42:40;;;;;;;2.22;2.03;;;;;;;22.97;57.62;96581.34;10409574;28;20044;-29
2022/08/28 14:47:41;;;;;;;1.50;1.40;;;;;;;23.01;56.30;96580.44;10408180;28;20034;-29
2022/08/28 14:52:42;;;;;;;2.90;2.70;;;;;;;22.97;57.04;96572.84;10408362;28;20064;-29
2022/08/28 14:57:43;;;;;;;2.58;2.38;;;;;;;22.94;57.65;96572.91;10408705;28;20987;-29
2022/08/28 15:02:43;;;;;;;2.28;2.08;;;;;;;22.93;57.77;96569.53;10407004;28;20037;-29
2022/08/28 15:07:44;;;;;;;2.40;2.20;;;;;;;22.91;57.84;96566.13;10406838;28;20471;-29
2022/08/28 15:12:44;;;;;;;2.53;2.33;;;;;;;22.92;57.98;96567.81;10409219;28;20268;-29
2022/08/28 15:17:45;;;;;;;2.37;2.20;;;;;;;22.92;58.04;96567.81;10406462;28;20041;-29
2022/08/28 15:22:45;;;;;;;2.83;2.63;;;;;;;22.93;58.14;96566.13;10407189;28;20034;-29
2022/08/28 15:27:46;;;;;;;2.27;2.10;;;;;;;23.00;57.95;96563.41;10407615;28;20411;-29
2022/08/28 15:32:47;;;;;;;1.57;1.47;;;;;;;23.03;56.64;96565.91;10401951;28;20284;-29
2022/08/28 15:37:47;;;;;;;5.20;2.20;;;;;;;22.98;57.94;96570.25;10402938;28;20156;-30
2022/08/28 15:42:48;;;;;;;2.63;2.03;;;;;;;22.83;57.23;96555.22;10395011;28;20034;-30
2022/08/28 15:47:48;;;;;;;3.13;2.90;;;;;;;22.93;58.04;96566.97;10389953;28;20110;-34
2022/08/28 15:52:48;;;;;;;3.37;3.07;;;;;;;22.96;58.52;96560.94;10399848;28;20068;-29
2022/08/28 15:57:49;;;;;;;14.63;4.03;;;;;;;22.90;58.05;96561.91;10402548;28;20435;-30
2022/08/28 16:02:50;;;;;;;7.13;2.50;;;;;;;22.69;58.04;96557.22;10402025;28;20032;-32
2022/08/28 16:07:50;;;;;;;6.78;2.25;;;;;;;22.70;57.81;96566.56;10399585;28;20368;-32
2022/08/28 16:12:50;;;;;;;11.73;2.63;;;;;;;22.91;57.41;96566.13;10406229;28;20455;-33
2022/08/28 16:17:51;;;;;;;8.07;1.80;;;;;;;22.95;56.94;96564.38;10401609;28;20044;-29
2022/08/28 16:22:51;;;;;;;7.18;2.53;;;;;;;22.57;58.35;96572.75;10403447;28;20419;-31
2022/08/28 16:27:52;;;;;;;7.03;3.28;;;;;;;22.67;58.09;96561.53;10411716;28;20443;-31
2022/08/28 16:32:52;;;;;;;9.27;2.47;;;;;;;22.49;58.84;96563.56;10402205;28;20592;-31
2022/08/28 16:37:52;;;;;;;5.57;2.60;;;;;;;22.58;58.53;96564.22;10403142;28;20443;-30
2022/08/28 16:42:54;;;;;;;7.13;2.80;;;;;;;22.77;57.94;96570.69;10402735;28;20423;-30
2022/08/28 16:47:55;;;;;;;2.47;1.88;;;;;;;22.99;57.00;96574.47;10406149;28;20025;-30
2022/08/28 16:52:55;;;;;;;4.97;2.60;;;;;;;22.80;57.56;96560.41;10402112;28;20021;-30
2022/08/28 16:57:56;;;;;;;4.57;3.60;;;;;;;22.73;57.39;96561.38;10403998;28;20030;-31
2022/08/28 17:02:57;;;;;;;10.35;3.53;;;;;;;22.68;57.21;96565.75;10402869;28;20051;-30
2022/08/28 17:07:58;;;;;;;5.10;2.58;;;;;;;22.82;58.04;96573.97;10403540;28;20038;-30
2022/08/28 17:12:59;;;;;;;3.53;2.25;;;;;;;22.96;57.02;96571.16;10403721;28;20488;-30
2022/08/28 17:17:59;;;;;;;2.55;2.35;;;;;;;22.79;57.17;96571.50;10400769;28;20044;-30
2022/08/28 17:23:00;;;;;;;15.17;3.40;;;;;;;22.71;57.25;96578.44;10393583;28;20451;-28
2022/08/28 17:28:00;;;;;;;42.72;9.77;;;;;;;22.70;57.49;96579.31;10407047;28;20291;-30
2022/08/28 17:33:01;;;;;;;51.70;16.30;;;;;;;22.67;57.62;96578.53;10401264;28;20080;-30
2022/08/28 17:38:01;;;;;;;10.97;4.70;;;;;;;22.89;57.54;96585.75;10400395;28;20491;-30
2022/08/28 17:43:02;;;;;;;5.33;2.30;;;;;;;22.89;57.15;96585.75;10407653;28;20295;-30
2022/08/28 17:48:03;;;;;;;8.05;4.00;;;;;;;22.76;57.28;96594.53;10411771;28;20592;-31
2022/08/28 17:53:04;;;;;;;16.67;5.78;;;;;;;22.73;57.01;96603.97;10406565;28;20025;-30
2022/08/28 17:58:05;;;;;;;9.93;4.65;;;;;;;22.61;58.03;96610.13;10406602;28;20037;-30
2022/08/28 18:03:06;;;;;;;22.98;7.55;;;;;;;22.70;59.10;96609.97;10406783;28;20069;-30
2022/08/28 18:08:07;;;;;;;13.05;4.80;;;;;;;22.92;58.03;96611.22;10409230;28;20033;-31
2022/08/28 18:13:07;;;;;;;9.52;4.22;;;;;;;22.85;57.83;96616.47;10410843;28;20030;-30
2022/08/28 18:18:08;;;;;;;9.00;4.63;;;;;;;22.81;57.17;96620.81;10404888;28;20036;-30
2022/08/28 18:23:09;;;;;;;14.82;5.15;;;;;;;22.74;57.58;96616.66;10407304;28;20236;-30
2022/08/28 18:28:16;;;;;;;11.95;5.22;;;;;;;22.72;57.85;96631.19;10404849;28;20045;-30
2022/08/28 18:33:21;;;;;;;12.90;6.38;;;;;;;22.75;58.41;96638.78;10406603;28;20044;-29
2022/08/28 18:38:25;;;;;;;16.02;5.68;;;;;;;22.91;60.61;96637.63;10398536;28;20582;-30
2022/08/28 18:43:25;;;;;;;7.68;3.65;;;;;;;22.78;58.33;96648.94;10407624;28;20453;-30
2022/08/28 18:48:26;;;;;;;10.93;4.57;;;;;;;22.80;58.42;96657.41;10405739;28;20041;-30
2022/08/28 18:53:27;;;;;;;11.40;4.78;;;;;;;22.77;57.96;96665.13;10401681;28;20040;-30
2022/08/28 18:58:28;;;;;;;11.13;5.80;;;;;;;22.74;57.75;96660.06;10401183;28;20535;-31
2022/08/28 19:03:29;;;;;;;8.77;4.88;;;;;;;22.78;59.14;96676.16;10402810;28;20040;-30
2022/08/28 19:08:31;;;;;;;7.25;3.42;;;;;;;22.98;57.87;96674.13;10401997;28;20037;-30
2022/08/28 19:13:31;;;;;;;7.75;3.45;;;;;;;22.89;57.51;96672.56;10404409;28;20091;-30
2022/08/28 19:18:32;;;;;;;6.30;4.00;;;;;;;22.78;57.31;96679.59;10402085;28;20037;-30
2022/08/28 19:23:33;;;;;;;6.65;4.28;;;;;;;22.68;58.91;96689.97;10400744;28;20049;-30
2022/08/28 19:28:35;;;;;;;10.60;4.53;;;;;;;22.75;58.39;96694.09;10400855;28;20064;-30
2022/08/28 19:33:38;;;;;;;5.50;2.97;;;;;;;22.81;58.20;96694.84;10402189;28;20037;-30
2022/08/28 19:38:39;;;;;;;5.32;3.22;;;;;;;23.00;57.68;96701.28;10402163;28;20041;-32
2022/08/28 19:43:39;;;;;;;6.63;2.92;;;;;;;22.86;57.21;96703.28;10403821;28;20374;-31
2022/08/28 19:48:40;;;;;;;3.70;2.92;;;;;;;22.79;57.18;96703.38;10399112;28;20037;-31
2022/08/28 19:53:41;;;;;;;5.53;4.33;;;;;;;22.76;57.30;96711.97;10401782;28;20084;-31
2022/08/28 19:58:41;;;;;;;3.72;3.33;;;;;;;22.68;57.81;96718.03;10401464;28;20111;-29
2022/08/28 20:03:42;;;;;;;13.17;4.90;;;;;;;22.72;58.64;96714.59;10401481;28;20087;-30
2022/08/28 20:08:43;;;;;;;3.60;2.57;;;;;;;22.95;57.54;96728.63;10401059;28;20048;-31
2022/08/28 20:13:43;;;;;;;5.78;2.50;;;;;;;22.90;57.27;96739.81;10401504;28;21132;-30
2022/08/28 20:18:43;;;;;;;4.70;2.20;;;;;;;22.76;57.16;96737.47;10404050;28;20496;-31
2022/08/28 20:23:44;;;;;;;3.13;2.67;;;;;;;22.73;57.35;96740.06;10400576;28;20034;-30
2022/08/28 20:28:45;;;;;;;6.60;3.65;;;;;;;22.66;58.31;96741.03;10399563;28;20381;-30
2022/08/28 20:33:47;;;;;;;10.32;4.35;;;;;;;22.68;57.80;96751.22;10401483;28;20063;-30
2022/08/28 20:38:47;;;;;;;4.68;2.85;;;;;;;22.70;58.86;96760.53;10399562;28;20112;-31
2022/08/28 20:43:48;;;;;;;3.47;2.90;;;;;;;22.92;58.07;96756.75;10405357;28;20041;-30
2022/08/28 20:48:48;;;;;;;3.17;2.58;;;;;;;22.83;57.84;96751.81;10401297;28;20508;-30
2022/08/28 20:53:51;;;;;;;5.77;3.83;;;;;;;22.77;57.58;96764.69;10399806;28;20396;-29
2022/08/28 20:58:51;;;;;;;9.82;4.13;;;;;;;22.75;57.88;96752.81;10407334;28;20041;-30
2022/08/28 21:03:52;;;;;;;9.60;4.50;;;;;;;22.74;58.04;96754.50;10403889;28;20041;-30
2022/08/28 21:08:55;;;;;;;4.77;4.07;;;;;;;22.70;58.90;96750.34;10394996;28;20416;-29
2022/08/28 21:13:55;;;;;;;6.85;4.43;;;;;;;22.73;58.37;96762.22;10403828;28;20346;-31
2022/08/28 21:18:55;;;;;;;4.10;3.00;;;;;;;22.95;58.55;96769.50;10407133;28;20036;-30
2022/08/28 21:23:56;;;;;;;3.30;3.00;;;;;;;22.94;58.17;96769.50;10411199;28;20037;-30
2022/08/28 21:28:56;;;;;;;6.63;4.15;;;;;;;22.83;58.46;96759.47;10412494;28;20368;-30
2022/08/28 21:33:57;;;;;;;10.87;4.37;;;;;;;22.83;57.86;96773.97;10409964;28;20028;-30
2022/08/28 21:38:57;;;;;;;8.07;4.17;;;;;;;22.85;58.60;96772.22;10409914;28;20691;-30
2022/08/28 21:43:57;;;;;;;6.23;5.00;;;;;;;22.84;58.18;96765.44;10412262;28;20446;-31
2022/08/28 21:48:58;;;;;;;4.87;4.07;;;;;;;22.78;57.67;96760.41;10407344;28;20288;-30
2022/08/28 21:53:58;;;;;;;4.27;3.47;;;;;;;22.85;58.58;96757.75;10403696;28;20030;-30
2022/08/28 21:58:59;;;;;;;3.83;3.40;;;;;;;22.99;58.40;96755.78;10409392;28;20038;-30
2022/08/28 22:04:00;;;;;;;4.53;3.63;;;;;;;22.85;57.82;96755.19;10407053;28;20162;-30
2022/08/28 22:09:01;;;;;;;6.57;4.53;;;;;;;22.85;58.27;96762.84;10408185;28;20030;-30
2022/08/28 22:14:01;;;;;;;4.60;4.20;;;;;;;22.81;57.70;96771.41;10411082;28;20037;-30
2022/08/28 22:19:03;;;;;;;7.10;4.17;;;;;;;22.83;58.96;96761.19;10407909;28;20034;-30
2022/08/28 22:24:04;;;;;;;4.78;4.32;;;;;;;22.85;59.23;96762.00;10408386;28;20449;-31
2022/08/28 22:29:04;;;;;;;4.97;4.10;;;;;;;22.83;59.23;96756.91;10409683;28;20091;-30
2022/08/28 22:34:05;;;;;;;4.85;3.45;;;;;;;22.93;59.04;96749.94;10403973;28;20022;-30
2022/08/28 22:39:05;;;;;;;4.30;3.90;;;;;;;22.92;59.07;96763.59;10406210;28;20033;-31
2022/08/28 22:44:06;;;;;;;5.95;4.22;;;;;;;22.86;59.67;96767.09;10410209;28;20284;-30
2022/08/28 22:49:07;;;;;;;6.32;3.50;;;;;;;22.80;59.04;96769.75;10408281;28;20148;-30
2022/08/28 22:54:07;;;;;;;5.07;4.60;;;;;;;22.83;59.49;96769.69;10408630;28;20022;-30
2022/08/28 22:59:08;;;;;;;6.47;4.20;;;;;;;22.80;59.60;96768.88;10409534;28;20037;-31
2022/08/28 23:04:10;;;;;;;6.10;4.55;;;;;;;22.79;59.48;96773.16;10407682;28;20283;-30
2022/08/28 23:09:10;;;;;;;5.25;3.85;;;;;;;22.85;59.09;96773.06;10404874;28;20044;-30
2022/08/28 23:14:11;;;;;;;4.00;3.70;;;;;;;22.92;58.73;96769.53;10404966;28;20041;-31
2022/08/28 23:19:12;;;;;;;5.28;4.60;;;;;;;22.86;58.84;96763.69;10406890;28;20072;-32
2022/08/28 23:24:14;;;;;;;4.40;4.00;;;;;;;22.82;58.64;96772.28;10405672;28;20048;-30
2022/08/28 23:29:15;;;;;;;5.65;4.60;;;;;;;22.81;58.99;96766.31;10405060;28;20045;-31
2022/08/28 23:34:15;;;;;;;5.93;3.97;;;;;;;22.78;58.51;96757.84;10407005;28;20448;-31
2022/08/28 23:39:15;;;;;;;5.30;4.40;;;;;;;22.78;59.00;96765.53;10407286;28;20037;-30